sensor_id;sensor_type;location;lat;lon;timestamp;pressure;altitude;pressure_sealevel;temperature;humidity
59987;BME280;46181;51.498;5.392;2023-03-23T00:02:54;100175.7;;;16.14;61.22656
59987;BME280;46181;51.498;5.392;2023-03-23T00:07:24;100171.8;;;16.15;61.13672
59987;BME280;46181;51.498;5.392;2023-03-23T00:11:54;100144.8;;;16.15;61.15918
59987;BME280;46181;51.498;5.392;2023-03-23T00:16:24;100171.9;;;16.18;61.10645
59987;BME280;46181;51.498;5.392;2023-03-23T00:20:55;100164.4;;;16.24;60.98926
59987;BME280;46181;51.498;5.392;2023-03-23T00:25:26;100148.4;;;16.21;60.98633
59987;BME280;46181;51.498;5.392;2023-03-23T00:29:54;100168.2;;;16.21;60.89453
59987;BME280;46181;51.498;5.392;2023-03-23T00:34:25;100164.4;;;16.2;60.92773
59987;BME280;46181;51.498;5.392;2023-03-23T00:38:54;100173.1;;;16.2;60.84766
59987;BME280;46181;51.498;5.392;2023-03-23T00:43:24;100167.3;;;16.23;60.87305
59987;BME280;46181;51.498;5.392;2023-03-23T00:47:54;100164.5;;;16.27;60.80078
59987;BME280;46181;51.498;5.392;2023-03-23T00:52:24;100150.1;;;16.24;60.81934
59987;BME280;46181;51.498;5.392;2023-03-23T00:56:54;100150.7;;;16.19;61.08594
59987;BME280;46181;51.498;5.392;2023-03-23T01:01:24;100153.7;;;16.13;61.14648
59987;BME280;46181;51.498;5.392;2023-03-23T01:05:54;100129.3;;;16.07;61.41016
59987;BME280;46181;51.498;5.392;2023-03-23T01:10:24;100133.4;;;16.05;61.7041
59987;BME280;46181;51.498;5.392;2023-03-23T01:14:54;100107.5;;;16.04;61.85059
59987;BME280;46181;51.498;5.392;2023-03-23T01:19:24;100107.2;;;16.03;61.82617
59987;BME280;46181;51.498;5.392;2023-03-23T01:23:54;100100.3;;;16.03;61.88379
59987;BME280;46181;51.498;5.392;2023-03-23T01:28:24;100103.5;;;16.05;61.89746
59987;BME280;46181;51.498;5.392;2023-03-23T01:32:54;100095.1;;;16.08;61.85547
59987;BME280;46181;51.498;5.392;2023-03-23T01:37:24;100100.5;;;16.09;61.75586
59987;BME280;46181;51.498;5.392;2023-03-23T01:41:54;100098.1;;;16.1;61.81348
59987;BME280;46181;51.498;5.392;2023-03-23T01:46:24;100101.5;;;16.17;61.62891
59987;BME280;46181;51.498;5.392;2023-03-23T01:50:59;100109.5;;;16.18;61.63086
59987;BME280;46181;51.498;5.392;2023-03-23T01:55:24;100106.2;;;16.24;61.41113
59987;BME280;46181;51.498;5.392;2023-03-23T01:59:55;100083.3;;;16.28;61.3252
59987;BME280;46181;51.498;5.392;2023-03-23T02:04:25;100072;;;16.28;61.18848
59987;BME280;46181;51.498;5.392;2023-03-23T02:08:57;100064.5;;;16.27;61.13184
59987;BME280;46181;51.498;5.392;2023-03-23T02:13:24;100066.1;;;16.32;60.95703
59987;BME280;46181;51.498;5.392;2023-03-23T02:17:59;100064.1;;;16.33;60.93359
59987;BME280;46181;51.498;5.392;2023-03-23T02:27:00;100055.4;;;16.33;60.7168
59987;BME280;46181;51.498;5.392;2023-03-23T02:35:56;100046.7;;;16.33;60.60352
59987;BME280;46181;51.498;5.392;2023-03-23T02:40:30;100044.7;;;16.33;60.50098
59987;BME280;46181;51.498;5.392;2023-03-23T02:44:54;100044.8;;;16.36;60.32324
59987;BME280;46181;51.498;5.392;2023-03-23T02:49:25;100042.1;;;16.35;60.32227
59987;BME280;46181;51.498;5.392;2023-03-23T02:53:55;100059.4;;;16.36;60.30078
59987;BME280;46181;51.498;5.392;2023-03-23T02:58:24;100052.5;;;16.4;60.20313
59987;BME280;46181;51.498;5.392;2023-03-23T03:02:55;100049.9;;;16.46;60.12988
59987;BME280;46181;51.498;5.392;2023-03-23T03:07:44;100046.3;;;16.45;60.10742
59987;BME280;46181;51.498;5.392;2023-03-23T03:11:58;100058.6;;;16.46;59.91406
59987;BME280;46181;51.498;5.392;2023-03-23T03:16:29;100053.6;;;16.49;59.92871
59987;BME280;46181;51.498;5.392;2023-03-23T03:20:58;100044.9;;;16.49;59.92969
59987;BME280;46181;51.498;5.392;2023-03-23T03:25:25;100063.4;;;16.47;59.98438
59987;BME280;46181;51.498;5.392;2023-03-23T03:29:58;100045.7;;;16.48;59.80273
59987;BME280;46181;51.498;5.392;2023-03-23T03:34:24;100051.8;;;16.49;59.63281
59987;BME280;46181;51.498;5.392;2023-03-23T03:38:56;100050.6;;;16.48;59.60938
59987;BME280;46181;51.498;5.392;2023-03-23T03:43:24;100058;;;16.5;59.37305
59987;BME280;46181;51.498;5.392;2023-03-23T03:47:54;100058.9;;;16.49;59.33594
59987;BME280;46181;51.498;5.392;2023-03-23T03:52:24;100043.5;;;16.51;59.09961
59987;BME280;46181;51.498;5.392;2023-03-23T03:56:54;100058.9;;;16.49;59.01758
59987;BME280;46181;51.498;5.392;2023-03-23T04:01:24;100060.1;;;16.48;58.91309
59987;BME280;46181;51.498;5.392;2023-03-23T04:05:54;100067;;;16.46;58.7168
59987;BME280;46181;51.498;5.392;2023-03-23T04:10:27;100063.8;;;16.45;58.60059
59987;BME280;46181;51.498;5.392;2023-03-23T04:14:54;100066.8;;;16.5;58.2207
59987;BME280;46181;51.498;5.392;2023-03-23T04:19:24;100078.4;;;16.51;58.00391
59987;BME280;46181;51.498;5.392;2023-03-23T04:23:54;100076;;;16.5;57.85449
59987;BME280;46181;51.498;5.392;2023-03-23T04:28:25;100078.7;;;16.5;57.57031
59987;BME280;46181;51.498;5.392;2023-03-23T04:32:54;100082.1;;;16.51;57.51367
59987;BME280;46181;51.498;5.392;2023-03-23T04:37:24;100085.2;;;16.52;57.50293
59987;BME280;46181;51.498;5.392;2023-03-23T04:41:54;100086.3;;;16.52;57.36719
59987;BME280;46181;51.498;5.392;2023-03-23T04:46:25;100088.9;;;16.51;57.43359
59987;BME280;46181;51.498;5.392;2023-03-23T04:50:54;100096.7;;;16.54;57.16406
59987;BME280;46181;51.498;5.392;2023-03-23T04:55:24;100099.9;;;16.51;57.125
59987;BME280;46181;51.498;5.392;2023-03-23T04:59:54;100096.3;;;16.51;57.15918
59987;BME280;46181;51.498;5.392;2023-03-23T05:04:24;100104.5;;;16.52;57.1377
59987;BME280;46181;51.498;5.392;2023-03-23T05:08:54;100106.5;;;16.5;57.27246
59987;BME280;46181;51.498;5.392;2023-03-23T05:13:24;100104.6;;;16.51;57.19434
59987;BME280;46181;51.498;5.392;2023-03-23T05:17:54;100102.5;;;16.51;57.03418
59987;BME280;46181;51.498;5.392;2023-03-23T05:22:24;100099.6;;;16.48;57.16797
59987;BME280;46181;51.498;5.392;2023-03-23T05:26:54;100104.1;;;16.48;57.08789
59987;BME280;46181;51.498;5.392;2023-03-23T05:31:24;100111.1;;;16.51;56.86328
59987;BME280;46181;51.498;5.392;2023-03-23T05:35:54;100112;;;16.48;56.9502
59987;BME280;46181;51.498;5.392;2023-03-23T05:40:26;100106;;;16.42;57.18262
59987;BME280;46181;51.498;5.392;2023-03-23T05:44:54;100105.6;;;16.37;57.37012
59987;BME280;46181;51.498;5.392;2023-03-23T05:49:25;100112.4;;;16.31;57.60156
59987;BME280;46181;51.498;5.392;2023-03-23T05:53:54;100114;;;16.31;57.83008
59987;BME280;46181;51.498;5.392;2023-03-23T05:58:24;100109.5;;;16.33;57.86621
59987;BME280;46181;51.498;5.392;2023-03-23T06:02:54;100117.8;;;16.3;57.89746
59987;BME280;46181;51.498;5.392;2023-03-23T06:07:24;100111.3;;;16.31;57.88672
59987;BME280;46181;51.498;5.392;2023-03-23T06:11:54;100115.8;;;16.35;57.80176
59987;BME280;46181;51.498;5.392;2023-03-23T06:16:24;100129.1;;;16.39;57.875
59987;BME280;46181;51.498;5.392;2023-03-23T06:20:54;100135;;;16.42;57.75391
59987;BME280;46181;51.498;5.392;2023-03-23T06:25:27;100148.5;;;16.48;57.64648
59987;BME280;46181;51.498;5.392;2023-03-23T06:29:54;100153.6;;;16.55;57.41699
59987;BME280;46181;51.498;5.392;2023-03-23T06:34:24;100162.1;;;16.58;57.18066
59987;BME280;46181;51.498;5.392;2023-03-23T06:38:55;100163.6;;;16.6;56.87402
59987;BME280;46181;51.498;5.392;2023-03-23T06:43:24;100175.4;;;16.62;56.77441
59987;BME280;46181;51.498;5.392;2023-03-23T06:47:54;100179.6;;;16.61;56.63574
59987;BME280;46181;51.498;5.392;2023-03-23T06:52:25;100181.5;;;16.61;56.66992
59987;BME280;46181;51.498;5.392;2023-03-23T06:56:54;100196.4;;;16.63;56.49121
59987;BME280;46181;51.498;5.392;2023-03-23T07:01:24;100194.3;;;16.63;56.36523
59987;BME280;46181;51.498;5.392;2023-03-23T07:05:54;100199.8;;;16.52;56.72656
59987;BME280;46181;51.498;5.392;2023-03-23T07:10:27;100197;;;16.25;57.27441
59987;BME280;46181;51.498;5.392;2023-03-23T07:14:54;100211.6;;;16;58.09766
59987;BME280;46181;51.498;5.392;2023-03-23T07:19:24;100224.5;;;15.81;58.92676
59987;BME280;46181;51.498;5.392;2023-03-23T07:23:54;100239.2;;;15.64;59.55176
59987;BME280;46181;51.498;5.392;2023-03-23T07:28:24;100236.6;;;15.51;60.08105
59987;BME280;46181;51.498;5.392;2023-03-23T07:32:54;100255.9;;;15.48;60.44141
59987;BME280;46181;51.498;5.392;2023-03-23T07:37:24;100253;;;15.42;60.69434
59987;BME280;46181;51.498;5.392;2023-03-23T07:41:54;100237;;;15.13;61.50781
59987;BME280;46181;51.498;5.392;2023-03-23T07:46:24;100241.4;;;15.03;62.16406
59987;BME280;46181;51.498;5.392;2023-03-23T07:50:54;100246.9;;;15;62.7168
59987;BME280;46181;51.498;5.392;2023-03-23T07:55:27;100249.1;;;14.99;63.0332
59987;BME280;46181;51.498;5.392;2023-03-23T07:59:54;100256.7;;;15;63.32813
59987;BME280;46181;51.498;5.392;2023-03-23T08:04:24;100268.9;;;14.99;63.45313
59987;BME280;46181;51.498;5.392;2023-03-23T08:08:54;100279.5;;;14.87;63.51367
59987;BME280;46181;51.498;5.392;2023-03-23T08:13:24;100292;;;14.81;64.1084
59987;BME280;46181;51.498;5.392;2023-03-23T08:17:54;100299.7;;;14.83;64.51953
59987;BME280;46181;51.498;5.392;2023-03-23T08:22:24;100296.6;;;14.94;64.61523
59987;BME280;46181;51.498;5.392;2023-03-23T08:26:54;100298.7;;;15.02;64.26172
59987;BME280;46181;51.498;5.392;2023-03-23T08:31:24;100294.8;;;15;64.16895
59987;BME280;46181;51.498;5.392;2023-03-23T08:36:00;100294.8;;;15.03;64.26465
59987;BME280;46181;51.498;5.392;2023-03-23T08:40:28;100283.6;;;15.11;64.26465
59987;BME280;46181;51.498;5.392;2023-03-23T08:44:54;100292.7;;;15.25;64.11426
59987;BME280;46181;51.498;5.392;2023-03-23T08:49:24;100299;;;15.39;64.01074
59987;BME280;46181;51.498;5.392;2023-03-23T08:53:54;100296.7;;;15.47;63.5791
59987;BME280;46181;51.498;5.392;2023-03-23T08:58:24;100301.2;;;15.49;63.53613
59987;BME280;46181;51.498;5.392;2023-03-23T09:02:55;100316.2;;;15.57;63.45703
59987;BME280;46181;51.498;5.392;2023-03-23T09:07:24;100292.9;;;15.57;63.35547
59987;BME280;46181;51.498;5.392;2023-03-23T09:11:54;100288;;;15.64;63.5
59987;BME280;46181;51.498;5.392;2023-03-23T09:16:24;100293.8;;;15.86;63.64648
59987;BME280;46181;51.498;5.392;2023-03-23T09:20:55;100307.8;;;16.06;63.55078
59987;BME280;46181;51.498;5.392;2023-03-23T09:25:28;100304.1;;;16.08;63.48535
59987;BME280;46181;51.498;5.392;2023-03-23T09:29:54;100303.1;;;16.14;63.02734
59987;BME280;46181;51.498;5.392;2023-03-23T09:34:24;100295.2;;;16.15;62.80078
59987;BME280;46181;51.498;5.392;2023-03-23T09:38:54;100301.7;;;16.16;62.70996
59987;BME280;46181;51.498;5.392;2023-03-23T09:48:03;100315.3;;;16.3;62.65039
59987;BME280;46181;51.498;5.392;2023-03-23T09:52:26;100313.6;;;16.27;62.62402
59987;BME280;46181;51.498;5.392;2023-03-23T09:56:55;100302.7;;;16.36;63.26172
59987;BME280;46181;51.498;5.392;2023-03-23T10:01:30;100310.2;;;16.45;62.86621
59987;BME280;46181;51.498;5.392;2023-03-23T10:05:55;100312;;;16.54;62.71777
59987;BME280;46181;51.498;5.392;2023-03-23T10:10:29;100311;;;16.62;62.49023
59987;BME280;46181;51.498;5.392;2023-03-23T10:15:08;100311.5;;;16.75;62.30371
59987;BME280;46181;51.498;5.392;2023-03-23T10:19:29;100320.8;;;16.89;61.44434
59987;BME280;46181;51.498;5.392;2023-03-23T10:24:00;100330.5;;;17.19;61.15527
59987;BME280;46181;51.498;5.392;2023-03-23T10:28:35;100333.7;;;17.59;60.96875
59987;BME280;46181;51.498;5.392;2023-03-23T10:32:58;100339;;;17.97;59.86816
59987;BME280;46181;51.498;5.392;2023-03-23T10:37:27;100332.4;;;18.14;59.38574
59987;BME280;46181;51.498;5.392;2023-03-23T10:41:54;100334.3;;;18.43;57.55664
59987;BME280;46181;51.498;5.392;2023-03-23T10:46:32;100327.4;;;18.14;57.03809
59987;BME280;46181;51.498;5.392;2023-03-23T10:50:58;100324.5;;;18.05;57.57617
59987;BME280;46181;51.498;5.392;2023-03-23T10:55:34;100325.7;;;18.03;57.4834
59987;BME280;46181;51.498;5.392;2023-03-23T10:59:57;100322.6;;;18.19;57.88184
59987;BME280;46181;51.498;5.392;2023-03-23T11:04:26;100330.1;;;18.61;57.71777
59987;BME280;46181;51.498;5.392;2023-03-23T11:09:01;100323;;;18.74;56.20898
59987;BME280;46181;51.498;5.392;2023-03-23T11:13:27;100320.5;;;18.76;55.79785
59987;BME280;46181;51.498;5.392;2023-03-23T11:18:04;100322.5;;;18.77;55.9502
59987;BME280;46181;51.498;5.392;2023-03-23T11:22:29;100322;;;19.04;54.30664
59987;BME280;46181;51.498;5.392;2023-03-23T11:26:55;100323.4;;;19.15;53.82422
59987;BME280;46181;51.498;5.392;2023-03-23T11:31:26;100340.1;;;19.48;53.50781
59987;BME280;46181;51.498;5.392;2023-03-23T11:35:56;100338.4;;;19.65;52.65332
59987;BME280;46181;51.498;5.392;2023-03-23T11:40:29;100350.4;;;19.59;51.91016
59987;BME280;46181;51.498;5.392;2023-03-23T11:45:05;100336.1;;;19.67;51.67676
59987;BME280;46181;51.498;5.392;2023-03-23T11:49:32;100338.1;;;19.96;51.39941
59987;BME280;46181;51.498;5.392;2023-03-23T11:53:58;100347.3;;;19.97;51.41211
59987;BME280;46181;51.498;5.392;2023-03-23T11:58:25;100333.6;;;20.1;50.73633
59987;BME280;46181;51.498;5.392;2023-03-23T12:03:01;100328.4;;;20.16;50.25879
59987;BME280;46181;51.498;5.392;2023-03-23T12:12:03;100311.4;;;20.29;48.83105
59987;BME280;46181;51.498;5.392;2023-03-23T12:16:32;100307.1;;;20.27;49.03613
59987;BME280;46181;51.498;5.392;2023-03-23T12:21:03;100322.8;;;20.32;49.45703
59987;BME280;46181;51.498;5.392;2023-03-23T12:25:51;100323.8;;;20.39;49.41895
59987;BME280;46181;51.498;5.392;2023-03-23T12:30:07;100311.4;;;20.41;48.57813
59987;BME280;46181;51.498;5.392;2023-03-23T12:34:31;100298.6;;;20.56;48.51367
59987;BME280;46181;51.498;5.392;2023-03-23T12:43:30;100301.3;;;20.53;48.42969
59987;BME280;46181;51.498;5.392;2023-03-23T12:47:57;100296.6;;;20.66;47.83203
59987;BME280;46181;51.498;5.392;2023-03-23T12:52:28;100282.9;;;20.8;46.83008
59987;BME280;46181;51.498;5.392;2023-03-23T12:56:58;100261.5;;;20.81;46.61133
59987;BME280;46181;51.498;5.392;2023-03-23T13:01:28;100276.6;;;20.72;46.7168
59987;BME280;46181;51.498;5.392;2023-03-23T13:05:58;100289.1;;;20.82;47.09668
59987;BME280;46181;51.498;5.392;2023-03-23T13:10:34;100288.9;;;20.97;47.25293
59987;BME280;46181;51.498;5.392;2023-03-23T13:15:00;100289.3;;;21.05;45.83691
59987;BME280;46181;51.498;5.392;2023-03-23T13:19:30;100277.4;;;21.2;45.14648
59987;BME280;46181;51.498;5.392;2023-03-23T13:23:57;100272.4;;;21.49;44.85254
59987;BME280;46181;51.498;5.392;2023-03-23T13:28:28;100285.8;;;21.6;44.43359
59987;BME280;46181;51.498;5.392;2023-03-23T13:33:00;100298.2;;;21.36;44.2832
59987;BME280;46181;51.498;5.392;2023-03-23T13:37:29;100301.9;;;20.52;46.43066
59987;BME280;46181;51.498;5.392;2023-03-23T13:42:17;100336.7;;;19.65;48.47266
59987;BME280;46181;51.498;5.392;2023-03-23T13:46:34;100346;;;18.82;50.17578
59987;BME280;46181;51.498;5.392;2023-03-23T13:50:59;100342.3;;;18.39;52.19531
59987;BME280;46181;51.498;5.392;2023-03-23T13:55:47;100335.2;;;17.93;53.32227
59987;BME280;46181;51.498;5.392;2023-03-23T14:00:26;100323.5;;;17.77;54.40137
59987;BME280;46181;51.498;5.392;2023-03-23T14:04:31;100317.5;;;17.83;54.94727
59987;BME280;46181;51.498;5.392;2023-03-23T14:09:03;100302.8;;;17.96;55.22754
59987;BME280;46181;51.498;5.392;2023-03-23T14:13:29;100299;;;17.96;55.75586
59987;BME280;46181;51.498;5.392;2023-03-23T14:17:55;100285.9;;;18.12;56.05078
59987;BME280;46181;51.498;5.392;2023-03-23T14:22:32;100295.7;;;17.99;57.2373
59987;BME280;46181;51.498;5.392;2023-03-23T14:27:01;100294.1;;;18.16;57.56738
59987;BME280;46181;51.498;5.392;2023-03-23T14:31:29;100266.8;;;18.56;57.31055
59987;BME280;46181;51.498;5.392;2023-03-23T14:35:56;100249.6;;;18.7;56.8584
59987;BME280;46181;51.498;5.392;2023-03-23T14:40:26;100241.6;;;18.61;57.00684
59987;BME280;46181;51.498;5.392;2023-03-23T14:44:56;100250.6;;;18.51;57.21191
59987;BME280;46181;51.498;5.392;2023-03-23T14:49:34;100245.6;;;18.51;57.75098
59987;BME280;46181;51.498;5.392;2023-03-23T14:53:57;100229.5;;;18.55;58.19238
59987;BME280;46181;51.498;5.392;2023-03-23T14:58:26;100234.2;;;18.5;58.37988
59987;BME280;46181;51.498;5.392;2023-03-23T15:02:57;100254.4;;;18.4;58.36816
59987;BME280;46181;51.498;5.392;2023-03-23T15:07:34;100257.4;;;18.37;58.43262
59987;BME280;46181;51.498;5.392;2023-03-23T15:12:00;100263.8;;;18.59;58.19727
59987;BME280;46181;51.498;5.392;2023-03-23T15:16:27;100251.5;;;18.75;57.78223
59987;BME280;46181;51.498;5.392;2023-03-23T15:20:58;100243.6;;;18.92;57.50586
59987;BME280;46181;51.498;5.392;2023-03-23T15:25:29;100235.7;;;19.06;57.15723
59987;BME280;46181;51.498;5.392;2023-03-23T15:30:11;100227.6;;;18.99;56.83789
59987;BME280;46181;51.498;5.392;2023-03-23T15:34:33;100221.2;;;18.69;56.76465
59987;BME280;46181;51.498;5.392;2023-03-23T15:38:56;100208.9;;;18.52;57.10938
59987;BME280;46181;51.498;5.392;2023-03-23T15:43:31;100198.5;;;18.34;57.29395
59987;BME280;46181;51.498;5.392;2023-03-23T15:47:58;100208.7;;;18.27;57.59375
59987;BME280;46181;51.498;5.392;2023-03-23T15:52:25;100212.5;;;18.35;57.73047
59987;BME280;46181;51.498;5.392;2023-03-23T15:56:55;100195.6;;;18.45;57.46875
59987;BME280;46181;51.498;5.392;2023-03-23T16:01:27;100191.9;;;18.5;57.24512
59987;BME280;46181;51.498;5.392;2023-03-23T16:05:55;100203.7;;;18.46;57.10156
59987;BME280;46181;51.498;5.392;2023-03-23T16:10:28;100202.7;;;18.52;56.65234
59987;BME280;46181;51.498;5.392;2023-03-23T16:14:55;100210.5;;;18.55;56.47168
59987;BME280;46181;51.498;5.392;2023-03-23T16:19:25;100216.2;;;18.55;56.38086
59987;BME280;46181;51.498;5.392;2023-03-23T16:23:55;100217.3;;;18.5;56.24805
59987;BME280;46181;51.498;5.392;2023-03-23T16:28:25;100221;;;18.36;56.20703
59987;BME280;46181;51.498;5.392;2023-03-23T16:32:55;100230.4;;;18.24;56.31836
59987;BME280;46181;51.498;5.392;2023-03-23T16:37:25;100237.3;;;18.21;56.71484
59987;BME280;46181;51.498;5.392;2023-03-23T16:41:55;100234.1;;;18.35;56.7207
59987;BME280;46181;51.498;5.392;2023-03-23T16:46:25;100229.7;;;18.23;56.67285
59987;BME280;46181;51.498;5.392;2023-03-23T16:50:55;100220.6;;;18.01;56.9873
59987;BME280;46181;51.498;5.392;2023-03-23T16:55:25;100212.5;;;17.88;57.2793
59987;BME280;46181;51.498;5.392;2023-03-23T16:59:55;100199.4;;;17.81;57.60254
59987;BME280;46181;51.498;5.392;2023-03-23T17:04:25;100206;;;17.81;57.83203
59987;BME280;46181;51.498;5.392;2023-03-23T17:08:55;100200;;;17.84;57.77832
59987;BME280;46181;51.498;5.392;2023-03-23T17:13:25;100198.8;;;17.84;57.87012
59987;BME280;46181;51.498;5.392;2023-03-23T17:17:55;100195.8;;;17.84;57.93848
59987;BME280;46181;51.498;5.392;2023-03-23T17:22:25;100198.5;;;17.86;57.94141
59987;BME280;46181;51.498;5.392;2023-03-23T17:26:55;100197.9;;;17.84;57.9502
59987;BME280;46181;51.498;5.392;2023-03-23T17:31:25;100190.1;;;17.83;58.01758
59987;BME280;46181;51.498;5.392;2023-03-23T17:35:55;100183;;;17.84;57.9502
59987;BME280;46181;51.498;5.392;2023-03-23T17:40:25;100182.4;;;17.8;57.87695
59987;BME280;46181;51.498;5.392;2023-03-23T17:44:55;100180.5;;;17.73;57.94727
59987;BME280;46181;51.498;5.392;2023-03-23T17:49:25;100183.7;;;17.66;58.0293
59987;BME280;46181;51.498;5.392;2023-03-23T17:53:55;100181.1;;;17.61;58.13672
59987;BME280;46181;51.498;5.392;2023-03-23T17:58:25;100179.8;;;17.64;58.15332
59987;BME280;46181;51.498;5.392;2023-03-23T18:02:55;100178.3;;;17.65;57.91406
59987;BME280;46181;51.498;5.392;2023-03-23T18:07:25;100166.9;;;17.66;57.7666
59987;BME280;46181;51.498;5.392;2023-03-23T18:11:55;100163.8;;;17.67;57.52734
59987;BME280;46181;51.498;5.392;2023-03-23T18:16:25;100164.8;;;17.68;57.27637
59987;BME280;46181;51.498;5.392;2023-03-23T18:20:57;100151.9;;;17.74;56.50488
59987;BME280;46181;51.498;5.392;2023-03-23T18:25:25;100149.4;;;17.72;56.52637
59987;BME280;46181;51.498;5.392;2023-03-23T18:29:55;100151.2;;;17.74;56.44824
59987;BME280;46181;51.498;5.392;2023-03-23T18:34:25;100148.2;;;17.73;56.45898
59987;BME280;46181;51.498;5.392;2023-03-23T18:38:56;100138.4;;;17.74;56.36816
59987;BME280;46181;51.498;5.392;2023-03-23T18:43:25;100132;;;17.77;56.0166
59987;BME280;46181;51.498;5.392;2023-03-23T18:47:55;100119.2;;;17.73;55.84082
59987;BME280;46181;51.498;5.392;2023-03-23T18:52:25;100121.3;;;17.73;55.84082
59987;BME280;46181;51.498;5.392;2023-03-23T18:56:55;100116.5;;;17.72;55.82715
59987;BME280;46181;51.498;5.392;2023-03-23T19:01:25;100113.9;;;17.7;55.63184
59987;BME280;46181;51.498;5.392;2023-03-23T19:05:55;100116.8;;;17.7;55.59766
59987;BME280;46181;51.498;5.392;2023-03-23T19:10:25;100112;;;17.7;55.58496
59987;BME280;46181;51.498;5.392;2023-03-23T19:14:55;100113.1;;;17.7;55.71094
59987;BME280;46181;51.498;5.392;2023-03-23T19:19:25;100107.3;;;17.7;55.21973
59987;BME280;46181;51.498;5.392;2023-03-23T19:23:55;100100.9;;;17.68;55.2168
59987;BME280;46181;51.498;5.392;2023-03-23T19:28:25;100094.5;;;17.65;55.22461
59987;BME280;46181;51.498;5.392;2023-03-23T19:32:55;100090.9;;;17.65;55.32715
59987;BME280;46181;51.498;5.392;2023-03-23T19:37:25;100083.7;;;17.61;55.5166
59987;BME280;46181;51.498;5.392;2023-03-23T19:41:55;100084;;;17.61;55.60742
59987;BME280;46181;51.498;5.392;2023-03-23T19:46:25;100077.1;;;17.54;55.78223
59987;BME280;46181;51.498;5.392;2023-03-23T19:50:55;100078.1;;;17.46;56.33398
59987;BME280;46181;51.498;5.392;2023-03-23T19:55:25;100072.2;;;17.44;56.51465
59987;BME280;46181;51.498;5.392;2023-03-23T19:59:55;100070.9;;;17.39;56.71289
59987;BME280;46181;51.498;5.392;2023-03-23T20:04:25;100068.6;;;17.31;57.02344
59987;BME280;46181;51.498;5.392;2023-03-23T20:08:55;100059.4;;;17.23;57.34473
59987;BME280;46181;51.498;5.392;2023-03-23T20:13:25;100055.2;;;17.18;57.69238
59987;BME280;46181;51.498;5.392;2023-03-23T20:17:55;100051.6;;;17.17;57.81738
59987;BME280;46181;51.498;5.392;2023-03-23T20:22:25;100044.8;;;17.18;57.88574
59987;BME280;46181;51.498;5.392;2023-03-23T20:26:55;100043.8;;;17.14;58.00684
59987;BME280;46181;51.498;5.392;2023-03-23T20:31:28;100037.7;;;17.1;58.33203
59987;BME280;46181;51.498;5.392;2023-03-23T20:35:55;100037.6;;;17.07;58.66016
59987;BME280;46181;51.498;5.392;2023-03-23T20:40:25;100036.9;;;17.07;58.94629
59987;BME280;46181;51.498;5.392;2023-03-23T20:44:55;100031.4;;;17.03;59.27051
59987;BME280;46181;51.498;5.392;2023-03-23T20:49:25;100028.7;;;16.98;59.66504
59987;BME280;46181;51.498;5.392;2023-03-23T20:53:55;100022.2;;;16.92;59.8291
59987;BME280;46181;51.498;5.392;2023-03-23T20:58:25;100015.4;;;16.93;59.94434
59987;BME280;46181;51.498;5.392;2023-03-23T21:02:55;100007.3;;;16.94;60.05957
59987;BME280;46181;51.498;5.392;2023-03-23T21:07:25;100001;;;16.94;60.05957
59987;BME280;46181;51.498;5.392;2023-03-23T21:11:55;99995.17;;;16.9;60.06445
59987;BME280;46181;51.498;5.392;2023-03-23T21:16:26;100004.4;;;16.89;60.03027
59987;BME280;46181;51.498;5.392;2023-03-23T21:20:55;99994.55;;;16.87;60.12988
59987;BME280;46181;51.498;5.392;2023-03-23T21:25:25;99987.3;;;16.86;60.12793
59987;BME280;46181;51.498;5.392;2023-03-23T21:29:58;99989.69;;;16.85;60.21875
59987;BME280;46181;51.498;5.392;2023-03-23T21:34:25;99996.59;;;16.8;60.3252
59987;BME280;46181;51.498;5.392;2023-03-23T21:38:55;99977.38;;;16.73;60.61328
59987;BME280;46181;51.498;5.392;2023-03-23T21:43:25;99987.36;;;16.68;60.8457
59987;BME280;46181;51.498;5.392;2023-03-23T21:47:55;99979.27;;;16.68;60.94824
59987;BME280;46181;51.498;5.392;2023-03-23T21:52:25;99969.8;;;16.62;61.06445
59987;BME280;46181;51.498;5.392;2023-03-23T21:56:55;99967.53;;;16.61;61.10938
59987;BME280;46181;51.498;5.392;2023-03-23T22:01:25;99964.63;;;16.56;61.375
59987;BME280;46181;51.498;5.392;2023-03-23T22:05:55;99953.03;;;16.48;61.54785
59987;BME280;46181;51.498;5.392;2023-03-23T22:10:25;99944.59;;;16.39;61.96777
59987;BME280;46181;51.498;5.392;2023-03-23T22:14:55;99933.47;;;16.32;62.1416
59987;BME280;46181;51.498;5.392;2023-03-23T22:19:25;99923.86;;;16.3;62.45703
59987;BME280;46181;51.498;5.392;2023-03-23T22:23:58;99916.72;;;16.24;62.79102
59987;BME280;46181;51.498;5.392;2023-03-23T22:28:25;99909.66;;;16.24;62.98438
59987;BME280;46181;51.498;5.392;2023-03-23T22:32:55;99911.12;;;16.24;62.99414
59987;BME280;46181;51.498;5.392;2023-03-23T22:37:25;99901.28;;;16.2;63.08105
59987;BME280;46181;51.498;5.392;2023-03-23T22:41:55;99890.27;;;16.2;63.24023
59987;BME280;46181;51.498;5.392;2023-03-23T22:46:25;99883.41;;;16.18;63.28125
59987;BME280;46181;51.498;5.392;2023-03-23T22:50:55;99878.48;;;16.14;63.49414
59987;BME280;46181;51.498;5.392;2023-03-23T22:55:25;99871.92;;;16.13;63.66309
59987;BME280;46181;51.498;5.392;2023-03-23T22:59:55;99877.88;;;16.17;63.78125
59987;BME280;46181;51.498;5.392;2023-03-23T23:04:25;99861.41;;;16.21;63.86719
59987;BME280;46181;51.498;5.392;2023-03-23T23:08:55;99856.38;;;16.23;63.8457
59987;BME280;46181;51.498;5.392;2023-03-23T23:13:25;99857.36;;;16.24;63.87305
59987;BME280;46181;51.498;5.392;2023-03-23T23:17:55;99852.42;;;16.23;63.98242
59987;BME280;46181;51.498;5.392;2023-03-23T23:22:25;99844.3;;;16.19;64.09277
59987;BME280;46181;51.498;5.392;2023-03-23T23:26:55;99837.97;;;16.23;64.08496